Aviation Digital Data Service (ADDS)

Output produced by METARs form (1818 UTC 18 April 2019)
found at http://www.aviationweather.gov/metar/data/
 
Forecast for: LFBO (TOULOUSE/BLAGNAC, FR)
Text: TAF LFBO 181700Z 1818/1924 12020G32KT CAVOK
Forecast period: 1800 UTC 18 April 2019 to 2200 UTC 19 April 2019
Forecast type: FROM: standard forecast or significant change
Winds: from the ESE (120 degrees) at 23 MPH (20 knots; 10.3 m/s)
gusting to 37 MPH (32 knots; 16.5 m/s)
Visibility: 6 or more miles 10+ km)
Ceiling: unknown
Clouds: missing
Weather: NSW  (no significant weather)
Text: BECMG 1922/1924 07008KT
Forecast period: 2200 UTC 19 April 2019 to 0000 UTC 20 April 2019
Forecast type: BECOMING: Conditions expected to become as follows by 0000 UTC 20 April 2019
Winds: from the ENE (70 degrees) at 9 MPH (8 knots; 4.1 m/s)
Visibility: 6 or more miles 10+ km)
Ceiling: unknown
Clouds: missing
Weather: NSW  (no significant weather)